sensor_id;sensor_type;location;lat;lon;timestamp;pressure;altitude;pressure_sealevel;temperature;humidity
13690;BME280;6917;52.194;9.894;2023-03-03T00:00:55;100978.31;;;-1.41;100.00
13690;BME280;6917;52.194;9.894;2023-03-03T00:03:22;100974.03;;;-1.48;100.00
13690;BME280;6917;52.194;9.894;2023-03-03T00:05:49;100968.88;;;-1.43;100.00
13690;BME280;6917;52.194;9.894;2023-03-03T00:08:16;100965.38;;;-1.44;100.00
13690;BME280;6917;52.194;9.894;2023-03-03T00:10:42;100963.97;;;-1.28;100.00
13690;BME280;6917;52.194;9.894;2023-03-03T00:13:15;100953.28;;;-1.10;100.00
13690;BME280;6917;52.194;9.894;2023-03-03T00:15:41;100958.66;;;-1.10;100.00
13690;BME280;6917;52.194;9.894;2023-03-03T00:18:30;100955.59;;;-1.13;100.00
13690;BME280;6917;52.194;9.894;2023-03-03T00:20:59;100968.69;;;-1.05;100.00
13690;BME280;6917;52.194;9.894;2023-03-03T00:23:30;100967.38;;;-0.96;100.00
13690;BME280;6917;52.194;9.894;2023-03-03T00:25:57;100967.69;;;-0.86;100.00
13690;BME280;6917;52.194;9.894;2023-03-03T00:28:45;100971.16;;;-1.04;100.00
13690;BME280;6917;52.194;9.894;2023-03-03T00:31:18;100959.47;;;-1.09;100.00
13690;BME280;6917;52.194;9.894;2023-03-03T00:33:48;100970.22;;;-1.34;100.00
13690;BME280;6917;52.194;9.894;2023-03-03T00:38:40;100980.69;;;-1.33;100.00
13690;BME280;6917;52.194;9.894;2023-03-03T00:41:26;100975.63;;;-1.41;100.00
13690;BME280;6917;52.194;9.894;2023-03-03T00:43:52;100978.31;;;-1.41;100.00
13690;BME280;6917;52.194;9.894;2023-03-03T00:46:20;100984.97;;;-1.50;100.00
13690;BME280;6917;52.194;9.894;2023-03-03T00:48:46;100997.19;;;-1.54;100.00
13690;BME280;6917;52.194;9.894;2023-03-03T00:51:26;100994.53;;;-1.36;100.00
13690;BME280;6917;52.194;9.894;2023-03-03T00:53:53;100991.97;;;-1.49;100.00
13690;BME280;6917;52.194;9.894;2023-03-03T00:56:18;100995.47;;;-1.48;100.00
13690;BME280;6917;52.194;9.894;2023-03-03T00:58:43;100998.22;;;-1.55;100.00
13690;BME280;6917;52.194;9.894;2023-03-03T01:01:10;100996.13;;;-1.53;100.00
13690;BME280;6917;52.194;9.894;2023-03-03T01:03:35;100998.16;;;-1.48;100.00
13690;BME280;6917;52.194;9.894;2023-03-03T01:06:01;100997.94;;;-1.47;100.00
13690;BME280;6917;52.194;9.894;2023-03-03T01:08:26;100999.47;;;-1.33;100.00
13690;BME280;6917;52.194;9.894;2023-03-03T01:10:54;101001.53;;;-1.35;100.00
13690;BME280;6917;52.194;9.894;2023-03-03T01:13:24;100997.81;;;-1.34;100.00
13690;BME280;6917;52.194;9.894;2023-03-03T01:15:50;101001.72;;;-1.30;100.00
13690;BME280;6917;52.194;9.894;2023-03-03T01:18:16;101001.63;;;-1.41;100.00
13690;BME280;6917;52.194;9.894;2023-03-03T01:20:41;101000.78;;;-1.42;100.00
13690;BME280;6917;52.194;9.894;2023-03-03T01:23:06;101008.22;;;-1.44;100.00
13690;BME280;6917;52.194;9.894;2023-03-03T01:25:32;100997.06;;;-1.41;100.00
13690;BME280;6917;52.194;9.894;2023-03-03T01:27:57;100998.59;;;-1.52;100.00
13690;BME280;6917;52.194;9.894;2023-03-03T01:30:23;101012.91;;;-1.64;100.00
13690;BME280;6917;52.194;9.894;2023-03-03T01:32:48;101001.34;;;-1.58;100.00
13690;BME280;6917;52.194;9.894;2023-03-03T01:35:14;100996.56;;;-1.56;100.00
13690;BME280;6917;52.194;9.894;2023-03-03T01:37:40;101000.28;;;-1.32;100.00
13690;BME280;6917;52.194;9.894;2023-03-03T01:40:07;101007.88;;;-1.54;100.00
13690;BME280;6917;52.194;9.894;2023-03-03T01:42:36;101010.72;;;-1.49;100.00
13690;BME280;6917;52.194;9.894;2023-03-03T01:45:20;101013.78;;;-1.45;100.00
13690;BME280;6917;52.194;9.894;2023-03-03T01:48:05;101011.38;;;-1.54;100.00
13690;BME280;6917;52.194;9.894;2023-03-03T01:53:42;101008.94;;;-1.55;100.00
13690;BME280;6917;52.194;9.894;2023-03-03T01:56:09;101007.53;;;-1.64;100.00
13690;BME280;6917;52.194;9.894;2023-03-03T01:58:39;100994.22;;;-1.71;100.00
13690;BME280;6917;52.194;9.894;2023-03-03T02:01:13;101007.38;;;-1.69;100.00
13690;BME280;6917;52.194;9.894;2023-03-03T02:03:40;101004.72;;;-1.69;100.00
13690;BME280;6917;52.194;9.894;2023-03-03T02:06:11;101019.97;;;-1.76;100.00
13690;BME280;6917;52.194;9.894;2023-03-03T02:08:56;101024.94;;;-1.73;100.00
13690;BME280;6917;52.194;9.894;2023-03-03T02:11:24;101027.41;;;-1.72;100.00
13690;BME280;6917;52.194;9.894;2023-03-03T02:13:50;101034.34;;;-1.64;100.00
13690;BME280;6917;52.194;9.894;2023-03-03T02:16:16;101021.81;;;-1.70;100.00
13690;BME280;6917;52.194;9.894;2023-03-03T02:18:41;101026.28;;;-1.64;100.00
13690;BME280;6917;52.194;9.894;2023-03-03T02:21:25;101024.94;;;-1.73;100.00
13690;BME280;6917;52.194;9.894;2023-03-03T02:26:39;101019.31;;;-1.65;100.00
13690;BME280;6917;52.194;9.894;2023-03-03T02:29:06;101014.31;;;-1.62;100.00
13690;BME280;6917;52.194;9.894;2023-03-03T02:31:32;101023.19;;;-1.61;100.00
13690;BME280;6917;52.194;9.894;2023-03-03T02:33:57;101012.25;;;-1.60;100.00
13690;BME280;6917;52.194;9.894;2023-03-03T02:36:26;101018.88;;;-1.62;100.00
13690;BME280;6917;52.194;9.894;2023-03-03T02:38:58;101018.38;;;-1.53;100.00
13690;BME280;6917;52.194;9.894;2023-03-03T02:41:49;101002.16;;;-1.58;100.00
13690;BME280;6917;52.194;9.894;2023-03-03T02:44:22;100995.97;;;-1.33;100.00
13690;BME280;6917;52.194;9.894;2023-03-03T02:46:49;101008.34;;;-1.57;100.00
13690;BME280;6917;52.194;9.894;2023-03-03T02:49:18;101014.22;;;-1.73;100.00
13690;BME280;6917;52.194;9.894;2023-03-03T02:51:43;101019.56;;;-1.73;100.00
13690;BME280;6917;52.194;9.894;2023-03-03T02:54:11;101021.66;;;-1.51;100.00
13690;BME280;6917;52.194;9.894;2023-03-03T02:56:36;101027.69;;;-1.55;100.00
13690;BME280;6917;52.194;9.894;2023-03-03T02:59:03;101025.00;;;-1.55;100.00
13690;BME280;6917;52.194;9.894;2023-03-03T03:01:28;101023.78;;;-1.59;100.00
13690;BME280;6917;52.194;9.894;2023-03-03T03:03:56;101025.47;;;-1.65;100.00
13690;BME280;6917;52.194;9.894;2023-03-03T03:06:22;101028.38;;;-1.66;100.00
13690;BME280;6917;52.194;9.894;2023-03-03T03:08:47;101026.25;;;-1.58;100.00
13690;BME280;6917;52.194;9.894;2023-03-03T03:11:12;101028.44;;;-1.48;100.00
13690;BME280;6917;52.194;9.894;2023-03-03T03:13:37;101032.66;;;-1.34;100.00
13690;BME280;6917;52.194;9.894;2023-03-03T03:16:03;101031.25;;;-1.36;100.00
13690;BME280;6917;52.194;9.894;2023-03-03T03:18:28;101030.75;;;-1.27;100.00
13690;BME280;6917;52.194;9.894;2023-03-03T03:20:54;101028.94;;;-1.33;100.00
13690;BME280;6917;52.194;9.894;2023-03-03T03:23:19;101032.44;;;-1.32;100.00
13690;BME280;6917;52.194;9.894;2023-03-03T03:25:47;101030.22;;;-1.35;100.00
13690;BME280;6917;52.194;9.894;2023-03-03T03:28:14;101036.00;;;-1.38;100.00
13690;BME280;6917;52.194;9.894;2023-03-03T03:30:41;101049.97;;;-1.30;100.00
13690;BME280;6917;52.194;9.894;2023-03-03T03:33:07;101045.16;;;-1.21;100.00
13690;BME280;6917;52.194;9.894;2023-03-03T03:35:33;101046.78;;;-1.20;100.00
13690;BME280;6917;52.194;9.894;2023-03-03T03:37:59;101047.00;;;-1.22;100.00
13690;BME280;6917;52.194;9.894;2023-03-03T03:40:24;101057.53;;;-1.52;100.00
13690;BME280;6917;52.194;9.894;2023-03-03T03:42:51;101073.00;;;-1.92;100.00
13690;BME280;6917;52.194;9.894;2023-03-03T03:45:16;101075.88;;;-1.87;100.00
13690;BME280;6917;52.194;9.894;2023-03-03T03:47:42;101074.41;;;-1.83;100.00
13690;BME280;6917;52.194;9.894;2023-03-03T03:50:08;101079.88;;;-1.64;100.00
13690;BME280;6917;52.194;9.894;2023-03-03T03:52:34;101070.69;;;-1.43;100.00
13690;BME280;6917;52.194;9.894;2023-03-03T03:55:00;101056.56;;;-1.32;100.00
13690;BME280;6917;52.194;9.894;2023-03-03T03:57:25;101075.09;;;-1.56;100.00
13690;BME280;6917;52.194;9.894;2023-03-03T03:59:50;101075.31;;;-1.57;100.00
13690;BME280;6917;52.194;9.894;2023-03-03T04:02:16;101068.78;;;-1.74;100.00
13690;BME280;6917;52.194;9.894;2023-03-03T04:04:41;101076.63;;;-1.73;100.00
13690;BME280;6917;52.194;9.894;2023-03-03T04:07:06;101078.38;;;-1.54;100.00
13690;BME280;6917;52.194;9.894;2023-03-03T04:09:32;101081.47;;;-1.25;100.00
13690;BME280;6917;52.194;9.894;2023-03-03T04:11:57;101088.59;;;-1.12;100.00
13690;BME280;6917;52.194;9.894;2023-03-03T04:14:22;101100.25;;;-1.00;100.00
13690;BME280;6917;52.194;9.894;2023-03-03T04:16:48;101107.69;;;-1.34;100.00
13690;BME280;6917;52.194;9.894;2023-03-03T04:19:13;101121.97;;;-1.40;100.00
13690;BME280;6917;52.194;9.894;2023-03-03T04:21:38;101119.59;;;-1.55;100.00
13690;BME280;6917;52.194;9.894;2023-03-03T04:24:04;101121.13;;;-1.72;100.00
13690;BME280;6917;52.194;9.894;2023-03-03T04:26:30;101114.75;;;-1.77;100.00
13690;BME280;6917;52.194;9.894;2023-03-03T04:28:56;101120.91;;;-1.70;100.00
13690;BME280;6917;52.194;9.894;2023-03-03T04:31:22;101126.63;;;-1.60;100.00
13690;BME280;6917;52.194;9.894;2023-03-03T04:33:49;101124.75;;;-1.53;100.00
13690;BME280;6917;52.194;9.894;2023-03-03T04:36:15;101122.94;;;-1.66;100.00
13690;BME280;6917;52.194;9.894;2023-03-03T04:38:40;101126.97;;;-1.50;100.00
13690;BME280;6917;52.194;9.894;2023-03-03T04:41:05;101121.66;;;-1.57;100.00
13690;BME280;6917;52.194;9.894;2023-03-03T04:43:31;101129.44;;;-1.48;100.00
13690;BME280;6917;52.194;9.894;2023-03-03T04:45:56;101129.50;;;-1.55;100.00
13690;BME280;6917;52.194;9.894;2023-03-03T04:48:21;101133.81;;;-1.54;100.00
13690;BME280;6917;52.194;9.894;2023-03-03T04:50:47;101135.44;;;-1.53;100.00
13690;BME280;6917;52.194;9.894;2023-03-03T04:53:12;101132.63;;;-1.27;100.00
13690;BME280;6917;52.194;9.894;2023-03-03T04:55:37;101128.03;;;-1.20;100.00
13690;BME280;6917;52.194;9.894;2023-03-03T04:58:03;101125.63;;;-1.03;100.00
13690;BME280;6917;52.194;9.894;2023-03-03T05:00:29;101131.63;;;-1.01;100.00
13690;BME280;6917;52.194;9.894;2023-03-03T05:02:54;101138.44;;;-0.80;100.00
13690;BME280;6917;52.194;9.894;2023-03-03T05:05:20;101135.44;;;-1.15;100.00
13690;BME280;6917;52.194;9.894;2023-03-03T05:07:45;101129.44;;;-1.17;100.00
13690;BME280;6917;52.194;9.894;2023-03-03T05:10:11;101135.75;;;-1.30;100.00
13690;BME280;6917;52.194;9.894;2023-03-03T05:12:36;101145.16;;;-1.21;100.00
13690;BME280;6917;52.194;9.894;2023-03-03T05:15:02;101152.19;;;-1.26;100.00
13690;BME280;6917;52.194;9.894;2023-03-03T05:17:27;101150.34;;;-1.26;100.00
13690;BME280;6917;52.194;9.894;2023-03-03T05:19:53;101148.91;;;-1.28;100.00
13690;BME280;6917;52.194;9.894;2023-03-03T05:22:20;101157.38;;;-1.31;100.00
13690;BME280;6917;52.194;9.894;2023-03-03T05:24:45;101145.44;;;-1.35;100.00
13690;BME280;6917;52.194;9.894;2023-03-03T05:27:13;101141.56;;;-1.08;100.00
13690;BME280;6917;52.194;9.894;2023-03-03T05:29:39;101138.94;;;-0.90;100.00
13690;BME280;6917;52.194;9.894;2023-03-03T05:32:04;101139.41;;;-0.74;100.00
13690;BME280;6917;52.194;9.894;2023-03-03T05:34:29;101145.56;;;-0.67;100.00
13690;BME280;6917;52.194;9.894;2023-03-03T05:36:55;101147.56;;;-0.63;100.00
13690;BME280;6917;52.194;9.894;2023-03-03T05:39:20;101138.72;;;-0.63;100.00
13690;BME280;6917;52.194;9.894;2023-03-03T05:41:45;101132.59;;;-0.70;100.00
13690;BME280;6917;52.194;9.894;2023-03-03T05:44:10;101131.00;;;-0.78;100.00
13690;BME280;6917;52.194;9.894;2023-03-03T05:46:36;101129.59;;;-0.80;100.00
13690;BME280;6917;52.194;9.894;2023-03-03T05:49:01;101125.28;;;-0.88;100.00
13690;BME280;6917;52.194;9.894;2023-03-03T05:51:26;101133.75;;;-0.84;100.00
13690;BME280;6917;52.194;9.894;2023-03-03T05:53:52;101139.50;;;-0.81;100.00
13690;BME280;6917;52.194;9.894;2023-03-03T05:56:17;101139.19;;;-0.73;100.00
13690;BME280;6917;52.194;9.894;2023-03-03T05:58:43;101140.88;;;-0.72;100.00
13690;BME280;6917;52.194;9.894;2023-03-03T06:01:08;101138.81;;;-0.76;100.00
13690;BME280;6917;52.194;9.894;2023-03-03T06:03:34;101137.78;;;-0.75;100.00
13690;BME280;6917;52.194;9.894;2023-03-03T06:05:59;101149.78;;;-0.78;100.00
13690;BME280;6917;52.194;9.894;2023-03-03T06:08:24;101163.78;;;-0.76;100.00
13690;BME280;6917;52.194;9.894;2023-03-03T06:10:50;101155.69;;;-0.69;100.00
13690;BME280;6917;52.194;9.894;2023-03-03T06:13:15;101162.84;;;-0.63;100.00
13690;BME280;6917;52.194;9.894;2023-03-03T06:15:40;101175.78;;;-0.78;100.00
13690;BME280;6917;52.194;9.894;2023-03-03T06:18:06;101187.19;;;-0.83;100.00
13690;BME280;6917;52.194;9.894;2023-03-03T06:20:31;101187.00;;;-0.63;100.00
13690;BME280;6917;52.194;9.894;2023-03-03T06:22:57;101199.66;;;-0.45;100.00
13690;BME280;6917;52.194;9.894;2023-03-03T06:25:22;101200.75;;;-0.28;100.00
13690;BME280;6917;52.194;9.894;2023-03-03T06:27:47;101203.38;;;-0.46;100.00
13690;BME280;6917;52.194;9.894;2023-03-03T06:30:13;101209.34;;;-0.69;100.00
13690;BME280;6917;52.194;9.894;2023-03-03T06:32:39;101212.75;;;-0.55;100.00
13690;BME280;6917;52.194;9.894;2023-03-03T06:35:04;101220.03;;;-0.63;100.00
13690;BME280;6917;52.194;9.894;2023-03-03T06:37:30;101218.13;;;-0.87;100.00
13690;BME280;6917;52.194;9.894;2023-03-03T06:39:55;101215.88;;;-0.83;100.00
13690;BME280;6917;52.194;9.894;2023-03-03T06:42:21;101215.16;;;-0.72;100.00
13690;BME280;6917;52.194;9.894;2023-03-03T06:44:49;101212.91;;;-0.50;100.00
13690;BME280;6917;52.194;9.894;2023-03-03T06:47:14;101216.91;;;-0.60;100.00
13690;BME280;6917;52.194;9.894;2023-03-03T06:49:39;101219.00;;;-0.37;100.00
13690;BME280;6917;52.194;9.894;2023-03-03T06:52:12;101212.09;;;-0.26;100.00
13690;BME280;6917;52.194;9.894;2023-03-03T06:54:38;101229.34;;;-0.40;100.00
13690;BME280;6917;52.194;9.894;2023-03-03T06:57:15;101220.91;;;-0.44;100.00
13690;BME280;6917;52.194;9.894;2023-03-03T06:59:40;101234.44;;;-0.57;100.00
13690;BME280;6917;52.194;9.894;2023-03-03T07:02:16;101231.53;;;-0.31;100.00
13690;BME280;6917;52.194;9.894;2023-03-03T07:04:42;101221.72;;;-0.18;100.00
13690;BME280;6917;52.194;9.894;2023-03-03T07:07:17;101230.09;;;-0.08;100.00
13690;BME280;6917;52.194;9.894;2023-03-03T07:09:45;101231.88;;;-0.02;100.00
13690;BME280;6917;52.194;9.894;2023-03-03T07:12:15;101239.34;;;-0.04;100.00
13690;BME280;6917;52.194;9.894;2023-03-03T07:14:46;101247.63;;;-0.06;100.00
13690;BME280;6917;52.194;9.894;2023-03-03T07:17:17;101246.19;;;-0.08;100.00
13690;BME280;6917;52.194;9.894;2023-03-03T07:19:43;101245.53;;;-0.04;100.00
13690;BME280;6917;52.194;9.894;2023-03-03T07:22:22;101246.31;;;-0.21;100.00
13690;BME280;6917;52.194;9.894;2023-03-03T07:24:51;101259.38;;;-0.25;100.00
13690;BME280;6917;52.194;9.894;2023-03-03T07:27:25;101259.59;;;-0.26;100.00
13690;BME280;6917;52.194;9.894;2023-03-03T07:30:12;101263.09;;;-0.26;100.00
13690;BME280;6917;52.194;9.894;2023-03-03T07:32:42;101265.13;;;-0.21;100.00
13690;BME280;6917;52.194;9.894;2023-03-03T07:35:28;101274.97;;;-0.15;100.00
13690;BME280;6917;52.194;9.894;2023-03-03T07:37:53;101272.91;;;-0.13;100.00
13690;BME280;6917;52.194;9.894;2023-03-03T07:42:56;101278.69;;;-0.16;100.00
13690;BME280;6917;52.194;9.894;2023-03-03T07:45:26;101286.75;;;-0.16;100.00
13690;BME280;6917;52.194;9.894;2023-03-03T07:47:59;101285.91;;;-0.10;100.00
13690;BME280;6917;52.194;9.894;2023-03-03T07:50:25;101286.00;;;-0.23;100.00
13690;BME280;6917;52.194;9.894;2023-03-03T07:52:56;101287.91;;;-0.31;100.00
13690;BME280;6917;52.194;9.894;2023-03-03T07:57:52;101294.72;;;-0.28;100.00
13690;BME280;6917;52.194;9.894;2023-03-03T08:02:59;101298.16;;;-0.21;100.00
13690;BME280;6917;52.194;9.894;2023-03-03T08:05:41;101303.88;;;-0.11;100.00
13690;BME280;6917;52.194;9.894;2023-03-03T08:08:26;101300.13;;;-0.10;100.00
13690;BME280;6917;52.194;9.894;2023-03-03T08:10:57;101297.22;;;-0.08;100.00
13690;BME280;6917;52.194;9.894;2023-03-03T08:13:39;101296.44;;;-0.15;100.00
13690;BME280;6917;52.194;9.894;2023-03-03T08:18:37;101304.41;;;-0.27;100.00
13690;BME280;6917;52.194;9.894;2023-03-03T08:23:29;101303.84;;;-0.36;100.00
13690;BME280;6917;52.194;9.894;2023-03-03T08:25:54;101311.09;;;-0.36;100.00
13690;BME280;6917;52.194;9.894;2023-03-03T08:28:20;101312.56;;;-0.40;100.00
13690;BME280;6917;52.194;9.894;2023-03-03T08:30:46;101307.41;;;-0.42;100.00
13690;BME280;6917;52.194;9.894;2023-03-03T08:33:12;101303.47;;;-0.39;100.00
13690;BME280;6917;52.194;9.894;2023-03-03T08:35:39;101310.63;;;-0.33;100.00
13690;BME280;6917;52.194;9.894;2023-03-03T08:38:05;101306.69;;;-0.31;100.00
13690;BME280;6917;52.194;9.894;2023-03-03T08:40:31;101304.81;;;-0.30;100.00
13690;BME280;6917;52.194;9.894;2023-03-03T08:42:56;101308.53;;;-0.24;100.00
13690;BME280;6917;52.194;9.894;2023-03-03T08:45:23;101308.06;;;-0.21;100.00
13690;BME280;6917;52.194;9.894;2023-03-03T08:47:48;101313.06;;;-0.25;100.00
13690;BME280;6917;52.194;9.894;2023-03-03T08:50:15;101308.06;;;-0.21;100.00
13690;BME280;6917;52.194;9.894;2023-03-03T08:52:40;101304.34;;;-0.20;100.00
13690;BME280;6917;52.194;9.894;2023-03-03T08:55:06;101309.88;;;-0.15;100.00
13690;BME280;6917;52.194;9.894;2023-03-03T08:57:31;101307.31;;;-0.04;100.00
13690;BME280;6917;52.194;9.894;2023-03-03T08:59:57;101311.75;;;0.09;100.00
13690;BME280;6917;52.194;9.894;2023-03-03T09:02:22;101308.56;;;0.19;100.00
13690;BME280;6917;52.194;9.894;2023-03-03T09:04:47;101315.13;;;0.23;100.00
13690;BME280;6917;52.194;9.894;2023-03-03T09:07:13;101311.84;;;0.21;100.00
13690;BME280;6917;52.194;9.894;2023-03-03T09:09:38;101316.84;;;0.17;100.00
13690;BME280;6917;52.194;9.894;2023-03-03T09:12:15;101313.72;;;0.20;100.00
13690;BME280;6917;52.194;9.894;2023-03-03T09:14:41;101319.31;;;0.19;100.00
13690;BME280;6917;52.194;9.894;2023-03-03T09:17:22;101310.34;;;0.25;100.00
13690;BME280;6917;52.194;9.894;2023-03-03T09:19:49;101307.03;;;0.29;100.00
13690;BME280;6917;52.194;9.894;2023-03-03T09:22:19;101312.53;;;0.35;100.00
13690;BME280;6917;52.194;9.894;2023-03-03T09:24:46;101315.50;;;0.26;100.00
13690;BME280;6917;52.194;9.894;2023-03-03T09:27:27;101322.09;;;0.31;100.00
13690;BME280;6917;52.194;9.894;2023-03-03T09:29:53;101315.94;;;0.23;100.00
13690;BME280;6917;52.194;9.894;2023-03-03T09:32:34;101314.69;;;0.26;100.00
13690;BME280;6917;52.194;9.894;2023-03-03T09:37:53;101318.72;;;0.17;100.00
13690;BME280;6917;52.194;9.894;2023-03-03T09:43:16;101317.22;;;0.21;100.00
13690;BME280;6917;52.194;9.894;2023-03-03T09:46:34;101314.91;;;0.24;100.00
13690;BME280;6917;52.194;9.894;2023-03-03T09:51:54;101320.66;;;0.28;100.00
13690;BME280;6917;52.194;9.894;2023-03-03T10:00:35;101321.13;;;0.43;100.00
13690;BME280;6917;52.194;9.894;2023-03-03T10:06:11;101334.13;;;0.46;100.00
13690;BME280;6917;52.194;9.894;2023-03-03T10:20:31;101331.31;;;0.59;100.00
13690;BME280;6917;52.194;9.894;2023-03-03T10:23:14;101335.09;;;0.70;100.00
13690;BME280;6917;52.194;9.894;2023-03-03T10:31:03;101330.31;;;0.91;100.00
13690;BME280;6917;52.194;9.894;2023-03-03T10:38:49;101345.94;;;0.82;100.00
13690;BME280;6917;52.194;9.894;2023-03-03T10:50:20;101348.44;;;1.13;100.00
13690;BME280;6917;52.194;9.894;2023-03-03T10:53:10;101352.56;;;1.16;100.00
13690;BME280;6917;52.194;9.894;2023-03-03T10:55:49;101354.22;;;1.17;100.00
13690;BME280;6917;52.194;9.894;2023-03-03T10:58:31;101350.53;;;1.11;100.00
13690;BME280;6917;52.194;9.894;2023-03-03T11:01:10;101349.72;;;1.11;100.00
13690;BME280;6917;52.194;9.894;2023-03-03T11:04:02;101349.13;;;1.09;100.00
13690;BME280;6917;52.194;9.894;2023-03-03T11:06:57;101353.28;;;1.23;100.00
13690;BME280;6917;52.194;9.894;2023-03-03T11:14:53;101339.53;;;1.31;100.00
13690;BME280;6917;52.194;9.894;2023-03-03T11:17:47;101346.47;;;1.39;100.00
13690;BME280;6917;52.194;9.894;2023-03-03T11:20:27;101339.56;;;1.43;100.00
13690;BME280;6917;52.194;9.894;2023-03-03T11:22:55;101334.69;;;1.52;100.00
13690;BME280;6917;52.194;9.894;2023-03-03T11:25:36;101334.56;;;1.46;100.00
13690;BME280;6917;52.194;9.894;2023-03-03T11:34:30;101339.47;;;1.49;100.00
13690;BME280;6917;52.194;9.894;2023-03-03T11:36:51;101345.22;;;1.53;100.00
13690;BME280;6917;52.194;9.894;2023-03-03T11:39:21;101341.34;;;1.49;100.00
13690;BME280;6917;52.194;9.894;2023-03-03T11:44:34;101343.47;;;1.47;100.00
13690;BME280;6917;52.194;9.894;2023-03-03T11:47:20;101335.63;;;1.45;100.00
13690;BME280;6917;52.194;9.894;2023-03-03T11:52:39;101334.28;;;1.36;100.00
13690;BME280;6917;52.194;9.894;2023-03-03T11:55:26;101332.75;;;1.40;100.00
13690;BME280;6917;52.194;9.894;2023-03-03T11:58:16;101332.06;;;1.33;100.00
13690;BME280;6917;52.194;9.894;2023-03-03T12:00:46;101332.91;;;1.45;100.00
13690;BME280;6917;52.194;9.894;2023-03-03T12:03:39;101321.91;;;1.47;100.00
13690;BME280;6917;52.194;9.894;2023-03-03T12:09:16;101318.38;;;1.76;100.00
13690;BME280;6917;52.194;9.894;2023-03-03T12:11:58;101318.69;;;1.68;100.00
13690;BME280;6917;52.194;9.894;2023-03-03T12:14:44;101310.72;;;1.73;100.00
13690;BME280;6917;52.194;9.894;2023-03-03T12:17:35;101303.03;;;1.77;100.00
13690;BME280;6917;52.194;9.894;2023-03-03T12:20:20;101298.69;;;1.76;100.00
13690;BME280;6917;52.194;9.894;2023-03-03T12:23:09;101299.13;;;1.61;100.00
13690;BME280;6917;52.194;9.894;2023-03-03T12:25:42;101293.38;;;1.69;100.00
13690;BME280;6917;52.194;9.894;2023-03-03T12:28:21;101289.16;;;1.73;100.00
13690;BME280;6917;52.194;9.894;2023-03-03T12:36:42;101284.50;;;1.81;100.00
13690;BME280;6917;52.194;9.894;2023-03-03T12:39:25;101288.50;;;1.90;100.00
13690;BME280;6917;52.194;9.894;2023-03-03T12:42:02;101283.25;;;2.06;100.00
13690;BME280;6917;52.194;9.894;2023-03-03T12:44:34;101280.41;;;2.13;100.00
13690;BME280;6917;52.194;9.894;2023-03-03T12:47:08;101274.81;;;2.03;100.00
13690;BME280;6917;52.194;9.894;2023-03-03T12:50:02;101270.94;;;2.11;100.00
13690;BME280;6917;52.194;9.894;2023-03-03T12:55:51;101277.63;;;2.20;100.00
13690;BME280;6917;52.194;9.894;2023-03-03T13:01:24;101276.44;;;2.27;100.00
13690;BME280;6917;52.194;9.894;2023-03-03T13:04:12;101266.69;;;2.26;100.00
13690;BME280;6917;52.194;9.894;2023-03-03T13:07:17;101271.50;;;2.36;100.00
13690;BME280;6917;52.194;9.894;2023-03-03T13:20:52;101262.66;;;2.64;100.00
13690;BME280;6917;52.194;9.894;2023-03-03T13:26:23;101257.66;;;2.44;100.00
13690;BME280;6917;52.194;9.894;2023-03-03T13:29:02;101271.13;;;2.56;100.00
13690;BME280;6917;52.194;9.894;2023-03-03T13:31:32;101264.63;;;2.68;100.00
13690;BME280;6917;52.194;9.894;2023-03-03T13:34:00;101258.06;;;2.76;100.00
13690;BME280;6917;52.194;9.894;2023-03-03T13:36:46;101261.81;;;2.75;100.00
13690;BME280;6917;52.194;9.894;2023-03-03T13:39:40;101250.00;;;2.64;100.00
13690;BME280;6917;52.194;9.894;2023-03-03T13:42:23;101252.34;;;2.61;100.00
13690;BME280;6917;52.194;9.894;2023-03-03T13:44:53;101249.78;;;2.54;100.00
13690;BME280;6917;52.194;9.894;2023-03-03T13:56:08;101230.19;;;2.87;100.00
13690;BME280;6917;52.194;9.894;2023-03-03T14:03:54;101226.53;;;2.93;100.00
13690;BME280;6917;52.194;9.894;2023-03-03T14:06:27;101222.69;;;2.89;100.00
13690;BME280;6917;52.194;9.894;2023-03-03T14:11:55;101223.59;;;2.95;100.00
13690;BME280;6917;52.194;9.894;2023-03-03T14:17:18;101207.81;;;3.04;100.00
13690;BME280;6917;52.194;9.894;2023-03-03T14:20:18;101215.34;;;3.02;100.00
13690;BME280;6917;52.194;9.894;2023-03-03T14:22:47;101211.69;;;3.08;100.00
13690;BME280;6917;52.194;9.894;2023-03-03T14:25:15;101216.75;;;3.04;100.00
13690;BME280;6917;52.194;9.894;2023-03-03T14:33:17;101203.94;;;2.83;100.00
13690;BME280;6917;52.194;9.894;2023-03-03T14:35:50;101210.06;;;2.78;100.00
13690;BME280;6917;52.194;9.894;2023-03-03T14:41:10;101203.50;;;2.74;100.00
13690;BME280;6917;52.194;9.894;2023-03-03T14:43:39;101197.06;;;2.75;100.00
13690;BME280;6917;52.194;9.894;2023-03-03T14:46:30;101199.75;;;2.75;100.00
13690;BME280;6917;52.194;9.894;2023-03-03T14:52:01;101196.00;;;2.76;100.00
13690;BME280;6917;52.194;9.894;2023-03-03T14:54:32;101194.25;;;2.70;100.00
13690;BME280;6917;52.194;9.894;2023-03-03T14:57:08;101198.25;;;2.67;100.00
13690;BME280;6917;52.194;9.894;2023-03-03T14:59:37;101187.47;;;2.67;100.00
13690;BME280;6917;52.194;9.894;2023-03-03T15:04:41;101182.72;;;2.75;100.00
13690;BME280;6917;52.194;9.894;2023-03-03T15:07:35;101185.66;;;2.73;100.00
13690;BME280;6917;52.194;9.894;2023-03-03T15:10:03;101180.50;;;2.72;100.00
13690;BME280;6917;52.194;9.894;2023-03-03T15:12:38;101169.59;;;2.78;100.00
13690;BME280;6917;52.194;9.894;2023-03-03T15:25:16;101170.28;;;3.02;100.00
13690;BME280;6917;52.194;9.894;2023-03-03T15:27:48;101159.47;;;2.85;100.00
13690;BME280;6917;52.194;9.894;2023-03-03T15:33:28;101157.06;;;2.72;100.00
13690;BME280;6917;52.194;9.894;2023-03-03T15:36:13;101149.31;;;2.76;100.00
13690;BME280;6917;52.194;9.894;2023-03-03T15:46:18;101149.19;;;2.99;100.00
13690;BME280;6917;52.194;9.894;2023-03-03T15:54:18;101144.34;;;3.18;100.00
13690;BME280;6917;52.194;9.894;2023-03-03T16:02:30;101141.09;;;3.16;100.00
13690;BME280;6917;52.194;9.894;2023-03-03T16:05:11;101139.56;;;3.20;100.00
13690;BME280;6917;52.194;9.894;2023-03-03T16:07:57;101146.84;;;3.19;100.00
13690;BME280;6917;52.194;9.894;2023-03-03T16:20:55;101131.41;;;3.03;100.00
13690;BME280;6917;52.194;9.894;2023-03-03T16:23:47;101136.22;;;2.84;100.00